This is the latest recevied weather packets stored in our database for station/object G8PZT. If no packets are shown the sender has not sent any weather packets the latest 1 day(s).
| Time | Temp. | Humidity | Pressure | Rain* | Wind** | Luminosity | Snow |
|---|---|---|---|---|---|---|---|
| 1778002316 | 13.33° C | 31% | - | 0 mm | 0 m/s | - | - |
| 1778001716 | 13.33° C | 28% | - | 0 mm | 0 m/s | - | - |
| 1778001116 | 13.89° C | 25% | - | 0 mm | 0 m/s | - | - |
| 1778000515 | 14.44° C | 23% | - | 0 mm | 0 m/s | - | - |
| 1777999915 | 14.44° C | 23% | - | 0 mm | 0 m/s | - | - |
| 1777999315 | 15.56° C | 23% | - | 0 mm | 0 m/s | - | - |
| 1777998716 | 16.11° C | 22% | - | 0 mm | 0 m/s | - | - |
| 1777998115 | 17.78° C | 21% | - | 0 mm | 0 m/s | - | - |
| 1777997516 | 16.11° C | 22% | - | 0 mm | 0 m/s | - | - |
| 1777996316 | 16.11° C | 22% | - | 0 mm | 0 m/s | - | - |
| 1777994516 | 16.67° C | 22% | - | 0 mm | 0 m/s | - | - |
| 1777993916 | 16.11° C | 22% | - | 0 mm | 0 m/s | - | - |
| 1777993316 | 16.67° C | 22% | - | 0 mm | 0 m/s | - | - |
| 1777992115 | 16.67° C | 22% | - | 0 mm | 0 m/s | - | - |
| 1777992002 | 16.67° C | 22% | - | 0 mm | 0 m/s | - | - |
| 1777991515 | 16.11° C | 22% | - | 0 mm | 0 m/s | - | - |
| 1777990915 | 16.11° C | 23% | - | 0 mm | 0 m/s | - | - |
| 1777990802 | 15.56° C | 23% | - | 0 mm | 0 m/s | - | - |
| 1777990316 | 16.11° C | 22% | - | 0 mm | 0 m/s | - | - |
| 1777989602 | 16.11° C | 22% | - | 0 mm | 0 m/s | - | - |
| 1777989116 | 16.11° C | 22% | - | 0 mm | 0 m/s | - | - |
| 1777988516 | 17.22° C | 22% | - | 0 mm | 0 m/s | - | - |
| 1777988403 | 16.67° C | 22% | - | 0 mm | 0 m/s | - | - |
| 1777987916 | 15° C | 24% | - | 0 mm | 0 m/s | - | - |
| 1777987316 | 15° C | 23% | - | 0 mm | 0 m/s | - | - |
* Rain latest hour (hover to see other rain measurements)
** Current wind speed in m/s (hover to see current wind gust speed)